sensor_id;sensor_type;location;lat;lon;timestamp;P1;durP1;ratioP1;P2;durP2;ratioP2
9328;SDS011;4703;48.748;19.142;2024-03-23T00:54:40;11.40;;;9.50;;
9328;SDS011;4703;48.748;19.142;2024-03-23T00:57:06;9.50;;;8.50;;
9328;SDS011;4703;48.748;19.142;2024-03-23T00:59:32;9.43;;;8.43;;
9328;SDS011;4703;48.748;19.142;2024-03-23T01:01:58;10.03;;;8.20;;
9328;SDS011;4703;48.748;19.142;2024-03-23T01:04:24;12.50;;;9.80;;
9328;SDS011;4703;48.748;19.142;2024-03-23T01:06:50;11.07;;;8.47;;
9328;SDS011;4703;48.748;19.142;2024-03-23T01:09:16;11.10;;;8.83;;
9328;SDS011;4703;48.748;19.142;2024-03-23T01:11:42;9.83;;;8.27;;
9328;SDS011;4703;48.748;19.142;2024-03-23T01:14:08;11.93;;;8.60;;
9328;SDS011;4703;48.748;19.142;2024-03-23T01:16:34;9.00;;;8.13;;
9328;SDS011;4703;48.748;19.142;2024-03-23T01:19:00;9.37;;;8.47;;
9328;SDS011;4703;48.748;19.142;2024-03-23T01:21:26;8.80;;;7.50;;
9328;SDS011;4703;48.748;19.142;2024-03-23T01:23:52;11.70;;;8.33;;
9328;SDS011;4703;48.748;19.142;2024-03-23T01:26:18;9.53;;;8.13;;
9328;SDS011;4703;48.748;19.142;2024-03-23T01:28:44;11.50;;;8.40;;
9328;SDS011;4703;48.748;19.142;2024-03-23T01:31:10;9.43;;;8.30;;
9328;SDS011;4703;48.748;19.142;2024-03-23T01:33:36;13.00;;;8.53;;
9328;SDS011;4703;48.748;19.142;2024-03-23T01:36:02;9.10;;;7.90;;
9328;SDS011;4703;48.748;19.142;2024-03-23T01:38:28;9.57;;;7.47;;
9328;SDS011;4703;48.748;19.142;2024-03-23T01:40:57;9.10;;;7.83;;
9328;SDS011;4703;48.748;19.142;2024-03-23T01:43:24;9.00;;;7.33;;
9328;SDS011;4703;48.748;19.142;2024-03-23T01:45:50;9.07;;;8.13;;
9328;SDS011;4703;48.748;19.142;2024-03-23T01:48:19;10.37;;;8.00;;
9328;SDS011;4703;48.748;19.142;2024-03-23T01:50:46;9.57;;;8.23;;
9328;SDS011;4703;48.748;19.142;2024-03-23T01:53:13;9.67;;;8.07;;
9328;SDS011;4703;48.748;19.142;2024-03-23T01:55:43;9.43;;;7.70;;
9328;SDS011;4703;48.748;19.142;2024-03-23T01:58:09;9.00;;;7.80;;
9328;SDS011;4703;48.748;19.142;2024-03-23T02:00:35;9.20;;;8.37;;
9328;SDS011;4703;48.748;19.142;2024-03-23T02:03:01;9.80;;;8.20;;
9328;SDS011;4703;48.748;19.142;2024-03-23T02:05:28;7.47;;;6.73;;
9328;SDS011;4703;48.748;19.142;2024-03-23T02:07:54;10.23;;;7.80;;
9328;SDS011;4703;48.748;19.142;2024-03-23T02:10:20;11.30;;;8.87;;
9328;SDS011;4703;48.748;19.142;2024-03-23T02:12:46;8.97;;;8.13;;
9328;SDS011;4703;48.748;19.142;2024-03-23T02:15:12;9.00;;;8.10;;
9328;SDS011;4703;48.748;19.142;2024-03-23T02:17:38;8.37;;;7.53;;
9328;SDS011;4703;48.748;19.142;2024-03-23T02:20:04;8.53;;;7.70;;
9328;SDS011;4703;48.748;19.142;2024-03-23T02:22:35;11.30;;;9.00;;
9328;SDS011;4703;48.748;19.142;2024-03-23T02:25:05;8.77;;;7.70;;
9328;SDS011;4703;48.748;19.142;2024-03-23T02:27:32;8.90;;;7.30;;
9328;SDS011;4703;48.748;19.142;2024-03-23T02:30:00;10.83;;;8.23;;
9328;SDS011;4703;48.748;19.142;2024-03-23T02:32:26;10.00;;;8.43;;
9328;SDS011;4703;48.748;19.142;2024-03-23T02:34:52;11.23;;;8.73;;
9328;SDS011;4703;48.748;19.142;2024-03-23T02:37:18;8.60;;;7.63;;
9328;SDS011;4703;48.748;19.142;2024-03-23T02:39:44;9.30;;;7.73;;
9328;SDS011;4703;48.748;19.142;2024-03-23T02:42:10;9.53;;;8.53;;
9328;SDS011;4703;48.748;19.142;2024-03-23T02:44:36;8.60;;;7.70;;
9328;SDS011;4703;48.748;19.142;2024-03-23T02:47:02;9.90;;;7.83;;
9328;SDS011;4703;48.748;19.142;2024-03-23T02:49:28;8.97;;;7.90;;
9328;SDS011;4703;48.748;19.142;2024-03-23T02:51:54;9.00;;;7.40;;
9328;SDS011;4703;48.748;19.142;2024-03-23T02:54:19;13.07;;;9.23;;
9328;SDS011;4703;48.748;19.142;2024-03-23T02:56:46;14.20;;;8.73;;
9328;SDS011;4703;48.748;19.142;2024-03-23T02:59:12;12.30;;;8.50;;
9328;SDS011;4703;48.748;19.142;2024-03-23T03:01:38;9.80;;;7.77;;
9328;SDS011;4703;48.748;19.142;2024-03-23T03:04:04;9.80;;;8.37;;
9328;SDS011;4703;48.748;19.142;2024-03-23T03:06:30;11.13;;;8.77;;
9328;SDS011;4703;48.748;19.142;2024-03-23T03:08:56;10.47;;;8.57;;
9328;SDS011;4703;48.748;19.142;2024-03-23T03:11:22;12.60;;;8.70;;
9328;SDS011;4703;48.748;19.142;2024-03-23T03:13:48;8.93;;;8.00;;
9328;SDS011;4703;48.748;19.142;2024-03-23T03:16:14;9.83;;;7.33;;
9328;SDS011;4703;48.748;19.142;2024-03-23T03:18:40;17.40;;;7.67;;
9328;SDS011;4703;48.748;19.142;2024-03-23T03:21:06;10.93;;;9.00;;
9328;SDS011;4703;48.748;19.142;2024-03-23T03:23:39;9.83;;;8.77;;
9328;SDS011;4703;48.748;19.142;2024-03-23T03:26:05;12.00;;;9.80;;
9328;SDS011;4703;48.748;19.142;2024-03-23T03:28:31;9.63;;;8.67;;
9328;SDS011;4703;48.748;19.142;2024-03-23T03:30:58;11.87;;;8.30;;
9328;SDS011;4703;48.748;19.142;2024-03-23T03:33:28;9.17;;;8.23;;
9328;SDS011;4703;48.748;19.142;2024-03-23T03:35:54;10.00;;;8.83;;
9328;SDS011;4703;48.748;19.142;2024-03-23T03:38:21;9.40;;;8.50;;
9328;SDS011;4703;48.748;19.142;2024-03-23T03:40:47;11.83;;;9.40;;
9328;SDS011;4703;48.748;19.142;2024-03-23T03:43:13;9.17;;;8.27;;
9328;SDS011;4703;48.748;19.142;2024-03-23T03:45:39;9.37;;;7.77;;
9328;SDS011;4703;48.748;19.142;2024-03-23T03:48:05;10.30;;;8.87;;
9328;SDS011;4703;48.748;19.142;2024-03-23T03:50:32;9.70;;;8.70;;
9328;SDS011;4703;48.748;19.142;2024-03-23T03:52:58;10.73;;;8.97;;
9328;SDS011;4703;48.748;19.142;2024-03-23T03:55:24;12.67;;;9.90;;
9328;SDS011;4703;48.748;19.142;2024-03-23T03:57:50;10.60;;;8.77;;
9328;SDS011;4703;48.748;19.142;2024-03-23T04:00:16;10.87;;;8.80;;
9328;SDS011;4703;48.748;19.142;2024-03-23T04:02:42;10.23;;;9.13;;
9328;SDS011;4703;48.748;19.142;2024-03-23T04:05:08;11.80;;;9.33;;
9328;SDS011;4703;48.748;19.142;2024-03-23T04:07:34;10.53;;;8.70;;
9328;SDS011;4703;48.748;19.142;2024-03-23T04:10:00;9.80;;;8.40;;
9328;SDS011;4703;48.748;19.142;2024-03-23T04:12:26;12.27;;;9.80;;
9328;SDS011;4703;48.748;19.142;2024-03-23T04:14:52;11.60;;;10.40;;
9328;SDS011;4703;48.748;19.142;2024-03-23T04:17:18;12.83;;;10.30;;
9328;SDS011;4703;48.748;19.142;2024-03-23T04:19:44;11.97;;;10.47;;
9328;SDS011;4703;48.748;19.142;2024-03-23T04:22:11;14.13;;;9.63;;
9328;SDS011;4703;48.748;19.142;2024-03-23T04:24:37;10.60;;;9.50;;
9328;SDS011;4703;48.748;19.142;2024-03-23T04:27:03;8.90;;;8.10;;
9328;SDS011;4703;48.748;19.142;2024-03-23T04:29:29;10.20;;;9.20;;
9328;SDS011;4703;48.748;19.142;2024-03-23T04:31:55;9.23;;;7.53;;
9328;SDS011;4703;48.748;19.142;2024-03-23T04:34:21;9.53;;;8.53;;
9328;SDS011;4703;48.748;19.142;2024-03-23T04:36:48;9.47;;;8.10;;
9328;SDS011;4703;48.748;19.142;2024-03-23T04:39:14;13.30;;;8.90;;
9328;SDS011;4703;48.748;19.142;2024-03-23T04:41:40;11.37;;;8.93;;
9328;SDS011;4703;48.748;19.142;2024-03-23T04:44:06;12.67;;;9.10;;
9328;SDS011;4703;48.748;19.142;2024-03-23T04:46:32;13.47;;;9.43;;
9328;SDS011;4703;48.748;19.142;2024-03-23T04:48:58;11.03;;;9.20;;
9328;SDS011;4703;48.748;19.142;2024-03-23T04:51:24;10.73;;;9.13;;
9328;SDS011;4703;48.748;19.142;2024-03-23T04:53:51;11.47;;;9.57;;
9328;SDS011;4703;48.748;19.142;2024-03-23T04:56:17;13.40;;;9.80;;
9328;SDS011;4703;48.748;19.142;2024-03-23T04:58:43;11.20;;;9.10;;
9328;SDS011;4703;48.748;19.142;2024-03-23T05:01:10;10.27;;;8.47;;
9328;SDS011;4703;48.748;19.142;2024-03-23T05:03:37;12.70;;;8.20;;
9328;SDS011;4703;48.748;19.142;2024-03-23T05:06:03;12.10;;;8.93;;
9328;SDS011;4703;48.748;19.142;2024-03-23T05:08:30;8.50;;;7.27;;
9328;SDS011;4703;48.748;19.142;2024-03-23T05:10:56;14.73;;;8.73;;
9328;SDS011;4703;48.748;19.142;2024-03-23T05:13:22;10.83;;;9.60;;
9328;SDS011;4703;48.748;19.142;2024-03-23T05:15:54;10.83;;;9.20;;
9328;SDS011;4703;48.748;19.142;2024-03-23T05:18:21;9.40;;;8.50;;
9328;SDS011;4703;48.748;19.142;2024-03-23T05:20:47;7.90;;;7.10;;
9328;SDS011;4703;48.748;19.142;2024-03-23T05:23:13;12.53;;;8.60;;
9328;SDS011;4703;48.748;19.142;2024-03-23T05:25:39;11.50;;;9.43;;
9328;SDS011;4703;48.748;19.142;2024-03-23T05:28:06;11.80;;;9.40;;
9328;SDS011;4703;48.748;19.142;2024-03-23T05:30:32;12.77;;;9.30;;
9328;SDS011;4703;48.748;19.142;2024-03-23T05:32:58;11.80;;;7.93;;
9328;SDS011;4703;48.748;19.142;2024-03-23T05:35:24;12.97;;;8.07;;
9328;SDS011;4703;48.748;19.142;2024-03-23T05:37:50;10.90;;;8.60;;
9328;SDS011;4703;48.748;19.142;2024-03-23T05:40:16;10.90;;;8.07;;
9328;SDS011;4703;48.748;19.142;2024-03-23T05:42:42;9.20;;;7.30;;
9328;SDS011;4703;48.748;19.142;2024-03-23T05:45:08;8.60;;;7.70;;
9328;SDS011;4703;48.748;19.142;2024-03-23T05:47:34;10.50;;;7.40;;
9328;SDS011;4703;48.748;19.142;2024-03-23T05:50:00;8.53;;;7.23;;
9328;SDS011;4703;48.748;19.142;2024-03-23T05:52:27;10.40;;;7.57;;
9328;SDS011;4703;48.748;19.142;2024-03-23T05:54:53;8.53;;;7.53;;
9328;SDS011;4703;48.748;19.142;2024-03-23T05:57:19;8.47;;;7.57;;
9328;SDS011;4703;48.748;19.142;2024-03-23T05:59:45;8.93;;;8.00;;
9328;SDS011;4703;48.748;19.142;2024-03-23T06:02:11;9.93;;;7.40;;
9328;SDS011;4703;48.748;19.142;2024-03-23T06:04:37;8.90;;;7.10;;
9328;SDS011;4703;48.748;19.142;2024-03-23T06:07:04;9.07;;;7.23;;
9328;SDS011;4703;48.748;19.142;2024-03-23T06:09:32;8.80;;;6.93;;
9328;SDS011;4703;48.748;19.142;2024-03-23T06:11:58;10.73;;;7.53;;
9328;SDS011;4703;48.748;19.142;2024-03-23T06:14:25;12.63;;;8.97;;
9328;SDS011;4703;48.748;19.142;2024-03-23T06:16:51;9.03;;;7.80;;
9328;SDS011;4703;48.748;19.142;2024-03-23T06:19:17;9.37;;;7.77;;
9328;SDS011;4703;48.748;19.142;2024-03-23T06:21:43;10.57;;;7.60;;
9328;SDS011;4703;48.748;19.142;2024-03-23T06:24:10;9.30;;;8.40;;
9328;SDS011;4703;48.748;19.142;2024-03-23T06:26:37;8.27;;;7.47;;
9328;SDS011;4703;48.748;19.142;2024-03-23T06:29:03;8.30;;;7.40;;
9328;SDS011;4703;48.748;19.142;2024-03-23T06:31:30;8.63;;;7.70;;
9328;SDS011;4703;48.748;19.142;2024-03-23T06:33:57;9.30;;;8.30;;
9328;SDS011;4703;48.748;19.142;2024-03-23T06:36:23;8.23;;;7.30;;
9328;SDS011;4703;48.748;19.142;2024-03-23T06:38:49;9.00;;;7.93;;
9328;SDS011;4703;48.748;19.142;2024-03-23T06:41:15;7.93;;;7.00;;
9328;SDS011;4703;48.748;19.142;2024-03-23T06:43:41;11.60;;;8.93;;
9328;SDS011;4703;48.748;19.142;2024-03-23T06:46:07;10.67;;;9.07;;
9328;SDS011;4703;48.748;19.142;2024-03-23T06:48:33;10.50;;;8.33;;
9328;SDS011;4703;48.748;19.142;2024-03-23T06:50:59;9.17;;;8.23;;
9328;SDS011;4703;48.748;19.142;2024-03-23T06:53:25;10.77;;;9.60;;
9328;SDS011;4703;48.748;19.142;2024-03-23T06:55:52;14.87;;;10.93;;
9328;SDS011;4703;48.748;19.142;2024-03-23T06:58:23;10.57;;;8.70;;
9328;SDS011;4703;48.748;19.142;2024-03-23T07:00:50;12.27;;;9.50;;
9328;SDS011;4703;48.748;19.142;2024-03-23T07:03:16;14.87;;;10.23;;
9328;SDS011;4703;48.748;19.142;2024-03-23T07:05:43;13.90;;;10.90;;
9328;SDS011;4703;48.748;19.142;2024-03-23T07:08:09;16.27;;;10.70;;
9328;SDS011;4703;48.748;19.142;2024-03-23T07:10:35;12.80;;;11.30;;
9328;SDS011;4703;48.748;19.142;2024-03-23T07:13:04;13.00;;;11.70;;
9328;SDS011;4703;48.748;19.142;2024-03-23T07:15:31;13.20;;;10.30;;
9328;SDS011;4703;48.748;19.142;2024-03-23T07:17:58;15.13;;;10.70;;
9328;SDS011;4703;48.748;19.142;2024-03-23T07:20:23;14.00;;;10.73;;
9328;SDS011;4703;48.748;19.142;2024-03-23T07:22:49;11.70;;;9.80;;
9328;SDS011;4703;48.748;19.142;2024-03-23T07:25:15;14.03;;;9.67;;
9328;SDS011;4703;48.748;19.142;2024-03-23T07:27:42;13.23;;;11.20;;
9328;SDS011;4703;48.748;19.142;2024-03-23T07:30:08;10.80;;;9.70;;
9328;SDS011;4703;48.748;19.142;2024-03-23T07:32:35;13.47;;;9.60;;
9328;SDS011;4703;48.748;19.142;2024-03-23T07:35:01;11.97;;;9.07;;
9328;SDS011;4703;48.748;19.142;2024-03-23T07:37:28;13.63;;;9.33;;
9328;SDS011;4703;48.748;19.142;2024-03-23T07:39:54;11.80;;;9.93;;
9328;SDS011;4703;48.748;19.142;2024-03-23T07:42:20;10.10;;;9.10;;
9328;SDS011;4703;48.748;19.142;2024-03-23T07:44:46;10.00;;;8.93;;
9328;SDS011;4703;48.748;19.142;2024-03-23T07:47:13;11.73;;;9.47;;
9328;SDS011;4703;48.748;19.142;2024-03-23T07:49:39;10.50;;;8.57;;
9328;SDS011;4703;48.748;19.142;2024-03-23T07:52:05;10.90;;;9.83;;
9328;SDS011;4703;48.748;19.142;2024-03-23T07:54:33;11.73;;;9.67;;
9328;SDS011;4703;48.748;19.142;2024-03-23T07:56:59;13.23;;;9.63;;
9328;SDS011;4703;48.748;19.142;2024-03-23T07:59:25;12.97;;;9.63;;
9328;SDS011;4703;48.748;19.142;2024-03-23T08:01:51;11.20;;;9.63;;
9328;SDS011;4703;48.748;19.142;2024-03-23T08:04:17;11.50;;;8.87;;
9328;SDS011;4703;48.748;19.142;2024-03-23T08:06:44;10.67;;;9.60;;
9328;SDS011;4703;48.748;19.142;2024-03-23T08:09:10;11.87;;;10.03;;
9328;SDS011;4703;48.748;19.142;2024-03-23T08:11:36;12.53;;;11.17;;
9328;SDS011;4703;48.748;19.142;2024-03-23T08:14:04;15.03;;;9.60;;
9328;SDS011;4703;48.748;19.142;2024-03-23T08:16:31;11.23;;;9.80;;
9328;SDS011;4703;48.748;19.142;2024-03-23T08:18:57;12.70;;;8.70;;
9328;SDS011;4703;48.748;19.142;2024-03-23T08:21:23;10.23;;;9.07;;
9328;SDS011;4703;48.748;19.142;2024-03-23T08:23:51;11.43;;;9.10;;
9328;SDS011;4703;48.748;19.142;2024-03-23T08:26:17;12.73;;;9.97;;
9328;SDS011;4703;48.748;19.142;2024-03-23T08:28:43;11.20;;;9.10;;
9328;SDS011;4703;48.748;19.142;2024-03-23T08:31:10;13.53;;;10.40;;
9328;SDS011;4703;48.748;19.142;2024-03-23T08:33:37;10.83;;;9.10;;
9328;SDS011;4703;48.748;19.142;2024-03-23T08:36:05;13.33;;;9.93;;
9328;SDS011;4703;48.748;19.142;2024-03-23T08:38:33;11.20;;;10.03;;
9328;SDS011;4703;48.748;19.142;2024-03-23T08:41:03;11.73;;;10.13;;
9328;SDS011;4703;48.748;19.142;2024-03-23T08:43:32;11.90;;;10.70;;
9328;SDS011;4703;48.748;19.142;2024-03-23T08:46:11;12.50;;;10.40;;
9328;SDS011;4703;48.748;19.142;2024-03-23T08:48:44;11.13;;;10.00;;
9328;SDS011;4703;48.748;19.142;2024-03-23T08:51:15;10.93;;;9.83;;
9328;SDS011;4703;48.748;19.142;2024-03-23T08:53:42;11.73;;;9.30;;
9328;SDS011;4703;48.748;19.142;2024-03-23T08:56:09;14.30;;;10.13;;
9328;SDS011;4703;48.748;19.142;2024-03-23T08:58:36;11.67;;;9.80;;
9328;SDS011;4703;48.748;19.142;2024-03-23T09:01:13;9.83;;;8.83;;
9328;SDS011;4703;48.748;19.142;2024-03-23T09:03:39;11.60;;;9.87;;
9328;SDS011;4703;48.748;19.142;2024-03-23T09:06:12;14.97;;;10.70;;
9328;SDS011;4703;48.748;19.142;2024-03-23T09:08:40;12.87;;;10.63;;
9328;SDS011;4703;48.748;19.142;2024-03-23T09:11:07;12.43;;;10.67;;
9328;SDS011;4703;48.748;19.142;2024-03-23T09:13:35;12.13;;;10.93;;
9328;SDS011;4703;48.748;19.142;2024-03-23T09:16:03;12.77;;;10.30;;
9328;SDS011;4703;48.748;19.142;2024-03-23T09:18:34;13.37;;;11.40;;
9328;SDS011;4703;48.748;19.142;2024-03-23T09:21:02;11.20;;;10.00;;
9328;SDS011;4703;48.748;19.142;2024-03-23T09:23:36;12.23;;;10.00;;
9328;SDS011;4703;48.748;19.142;2024-03-23T09:26:05;12.20;;;10.47;;
9328;SDS011;4703;48.748;19.142;2024-03-23T09:28:32;12.63;;;11.33;;
9328;SDS011;4703;48.748;19.142;2024-03-23T09:31:05;14.53;;;10.00;;
9328;SDS011;4703;48.748;19.142;2024-03-23T09:33:34;12.63;;;10.67;;
9328;SDS011;4703;48.748;19.142;2024-03-23T09:36:04;10.77;;;9.00;;
9328;SDS011;4703;48.748;19.142;2024-03-23T09:38:31;11.27;;;9.30;;
9328;SDS011;4703;48.748;19.142;2024-03-23T09:40:57;10.77;;;8.60;;
9328;SDS011;4703;48.748;19.142;2024-03-23T09:43:24;12.10;;;9.73;;
9328;SDS011;4703;48.748;19.142;2024-03-23T09:45:51;13.37;;;10.70;;
9328;SDS011;4703;48.748;19.142;2024-03-23T09:48:18;11.27;;;10.07;;
9328;SDS011;4703;48.748;19.142;2024-03-23T09:50:45;10.83;;;9.60;;
9328;SDS011;4703;48.748;19.142;2024-03-23T09:53:14;10.80;;;8.53;;
9328;SDS011;4703;48.748;19.142;2024-03-23T09:55:41;10.63;;;9.50;;
9328;SDS011;4703;48.748;19.142;2024-03-23T09:58:12;10.10;;;9.10;;
9328;SDS011;4703;48.748;19.142;2024-03-23T10:00:41;10.03;;;8.83;;
9328;SDS011;4703;48.748;19.142;2024-03-23T10:03:08;11.70;;;8.97;;
9328;SDS011;4703;48.748;19.142;2024-03-23T10:05:36;11.47;;;10.37;;
9328;SDS011;4703;48.748;19.142;2024-03-23T10:10:41;10.33;;;9.30;;
9328;SDS011;4703;48.748;19.142;2024-03-23T10:13:08;13.47;;;10.03;;
9328;SDS011;4703;48.748;19.142;2024-03-23T10:15:35;11.57;;;10.37;;
9328;SDS011;4703;48.748;19.142;2024-03-23T10:18:18;11.80;;;9.83;;
9328;SDS011;4703;48.748;19.142;2024-03-23T10:20:50;9.80;;;8.37;;
9328;SDS011;4703;48.748;19.142;2024-03-23T10:23:23;10.83;;;9.73;;
9328;SDS011;4703;48.748;19.142;2024-03-23T10:25:49;11.00;;;9.83;;
9328;SDS011;4703;48.748;19.142;2024-03-23T10:28:15;14.50;;;10.67;;
9328;SDS011;4703;48.748;19.142;2024-03-23T10:30:43;11.90;;;9.90;;
9328;SDS011;4703;48.748;19.142;2024-03-23T10:33:10;11.03;;;9.60;;
9328;SDS011;4703;48.748;19.142;2024-03-23T10:35:36;11.63;;;10.13;;
9328;SDS011;4703;48.748;19.142;2024-03-23T10:38:06;9.53;;;8.50;;
9328;SDS011;4703;48.748;19.142;2024-03-23T10:40:36;10.47;;;8.90;;
9328;SDS011;4703;48.748;19.142;2024-03-23T10:43:02;9.73;;;8.80;;
9328;SDS011;4703;48.748;19.142;2024-03-23T10:45:30;10.20;;;9.07;;
9328;SDS011;4703;48.748;19.142;2024-03-23T10:47:56;9.80;;;8.73;;
9328;SDS011;4703;48.748;19.142;2024-03-23T10:50:22;9.40;;;8.43;;
9328;SDS011;4703;48.748;19.142;2024-03-23T10:52:49;14.50;;;9.47;;
9328;SDS011;4703;48.748;19.142;2024-03-23T10:55:18;9.23;;;8.20;;
9328;SDS011;4703;48.748;19.142;2024-03-23T10:57:50;9.57;;;8.57;;
9328;SDS011;4703;48.748;19.142;2024-03-23T11:00:19;10.80;;;9.30;;
9328;SDS011;4703;48.748;19.142;2024-03-23T11:02:49;12.30;;;10.70;;
9328;SDS011;4703;48.748;19.142;2024-03-23T11:07:54;11.17;;;9.60;;
9328;SDS011;4703;48.748;19.142;2024-03-23T11:10:24;9.80;;;8.90;;
9328;SDS011;4703;48.748;19.142;2024-03-23T11:13:11;10.73;;;9.63;;
9328;SDS011;4703;48.748;19.142;2024-03-23T11:15:47;10.33;;;9.33;;
9328;SDS011;4703;48.748;19.142;2024-03-23T11:18:19;10.27;;;9.20;;
9328;SDS011;4703;48.748;19.142;2024-03-23T11:20:46;10.30;;;8.97;;
9328;SDS011;4703;48.748;19.142;2024-03-23T11:23:28;10.33;;;9.23;;
9328;SDS011;4703;48.748;19.142;2024-03-23T11:25:54;12.00;;;9.33;;
9328;SDS011;4703;48.748;19.142;2024-03-23T11:28:20;9.90;;;8.90;;
9328;SDS011;4703;48.748;19.142;2024-03-23T11:30:47;9.83;;;8.87;;
9328;SDS011;4703;48.748;19.142;2024-03-23T11:33:13;10.37;;;8.20;;
9328;SDS011;4703;48.748;19.142;2024-03-23T11:35:41;9.93;;;9.03;;
9328;SDS011;4703;48.748;19.142;2024-03-23T11:38:13;9.87;;;8.77;;
9328;SDS011;4703;48.748;19.142;2024-03-23T11:40:50;10.67;;;9.70;;
9328;SDS011;4703;48.748;19.142;2024-03-23T11:43:17;9.60;;;8.67;;
9328;SDS011;4703;48.748;19.142;2024-03-23T11:45:54;12.90;;;8.90;;
9328;SDS011;4703;48.748;19.142;2024-03-23T11:48:22;10.30;;;9.30;;
9328;SDS011;4703;48.748;19.142;2024-03-23T11:50:50;9.37;;;8.40;;
9328;SDS011;4703;48.748;19.142;2024-03-23T11:53:21;10.73;;;9.50;;
9328;SDS011;4703;48.748;19.142;2024-03-23T11:55:49;10.70;;;9.60;;
9328;SDS011;4703;48.748;19.142;2024-03-23T11:58:20;9.50;;;8.53;;
9328;SDS011;4703;48.748;19.142;2024-03-23T12:00:58;10.33;;;9.20;;
9328;SDS011;4703;48.748;19.142;2024-03-23T12:03:29;10.77;;;9.73;;
9328;SDS011;4703;48.748;19.142;2024-03-23T12:05:58;11.67;;;9.80;;
9328;SDS011;4703;48.748;19.142;2024-03-23T12:08:33;24.47;;;21.83;;
9328;SDS011;4703;48.748;19.142;2024-03-23T12:11:04;22.87;;;17.90;;
9328;SDS011;4703;48.748;19.142;2024-03-23T12:13:40;10.60;;;9.50;;
9328;SDS011;4703;48.748;19.142;2024-03-23T12:16:16;11.20;;;10.10;;
9328;SDS011;4703;48.748;19.142;2024-03-23T12:18:49;11.27;;;10.23;;
9328;SDS011;4703;48.748;19.142;2024-03-23T12:21:20;10.83;;;9.77;;
9328;SDS011;4703;48.748;19.142;2024-03-23T12:23:48;12.40;;;10.67;;
9328;SDS011;4703;48.748;19.142;2024-03-23T12:26:15;10.90;;;9.73;;
9328;SDS011;4703;48.748;19.142;2024-03-23T12:28:43;11.70;;;10.40;;
9328;SDS011;4703;48.748;19.142;2024-03-23T12:31:10;10.13;;;9.23;;
9328;SDS011;4703;48.748;19.142;2024-03-23T12:33:36;10.23;;;9.20;;
9328;SDS011;4703;48.748;19.142;2024-03-23T12:36:02;9.53;;;8.53;;
9328;SDS011;4703;48.748;19.142;2024-03-23T12:38:29;15.80;;;9.07;;
9328;SDS011;4703;48.748;19.142;2024-03-23T12:40:55;10.63;;;9.30;;
9328;SDS011;4703;48.748;19.142;2024-03-23T12:43:21;10.10;;;9.10;;
9328;SDS011;4703;48.748;19.142;2024-03-23T12:45:48;10.93;;;9.83;;
9328;SDS011;4703;48.748;19.142;2024-03-23T12:48:14;11.40;;;10.20;;
9328;SDS011;4703;48.748;19.142;2024-03-23T12:50:41;11.80;;;10.60;;
9328;SDS011;4703;48.748;19.142;2024-03-23T12:53:08;10.80;;;9.70;;
9328;SDS011;4703;48.748;19.142;2024-03-23T12:55:37;10.90;;;9.80;;
9328;SDS011;4703;48.748;19.142;2024-03-23T12:58:03;12.07;;;9.33;;
9328;SDS011;4703;48.748;19.142;2024-03-23T13:00:30;11.70;;;9.60;;
9328;SDS011;4703;48.748;19.142;2024-03-23T13:02:56;10.77;;;9.77;;
9328;SDS011;4703;48.748;19.142;2024-03-23T13:05:22;23.40;;;20.43;;
9328;SDS011;4703;48.748;19.142;2024-03-23T13:07:48;24.23;;;20.60;;
9328;SDS011;4703;48.748;19.142;2024-03-23T13:10:13;17.60;;;15.20;;
9328;SDS011;4703;48.748;19.142;2024-03-23T13:12:41;20.33;;;14.90;;
9328;SDS011;4703;48.748;19.142;2024-03-23T13:15:08;10.53;;;9.30;;
9328;SDS011;4703;48.748;19.142;2024-03-23T13:17:34;10.07;;;9.07;;
9328;SDS011;4703;48.748;19.142;2024-03-23T13:20:00;10.10;;;9.10;;
9328;SDS011;4703;48.748;19.142;2024-03-23T13:22:26;9.37;;;8.37;;
9328;SDS011;4703;48.748;19.142;2024-03-23T13:24:53;9.53;;;8.63;;
9328;SDS011;4703;48.748;19.142;2024-03-23T13:27:19;11.80;;;8.93;;
9328;SDS011;4703;48.748;19.142;2024-03-23T13:29:45;9.80;;;8.80;;
9328;SDS011;4703;48.748;19.142;2024-03-23T13:32:12;8.43;;;7.53;;
9328;SDS011;4703;48.748;19.142;2024-03-23T13:34:38;7.93;;;7.07;;
9328;SDS011;4703;48.748;19.142;2024-03-23T13:37:05;8.40;;;7.50;;
9328;SDS011;4703;48.748;19.142;2024-03-23T13:39:32;8.07;;;7.27;;
9328;SDS011;4703;48.748;19.142;2024-03-23T13:41:58;9.57;;;8.27;;
9328;SDS011;4703;48.748;19.142;2024-03-23T13:44:24;10.63;;;7.77;;
9328;SDS011;4703;48.748;19.142;2024-03-23T13:46:51;8.77;;;7.87;;
9328;SDS011;4703;48.748;19.142;2024-03-23T13:49:30;7.63;;;6.93;;
9328;SDS011;4703;48.748;19.142;2024-03-23T13:51:59;7.83;;;7.13;;
9328;SDS011;4703;48.748;19.142;2024-03-23T13:54:26;8.07;;;7.33;;
9328;SDS011;4703;48.748;19.142;2024-03-23T13:56:52;8.87;;;7.97;;
9328;SDS011;4703;48.748;19.142;2024-03-23T13:59:20;9.30;;;8.40;;
9328;SDS011;4703;48.748;19.142;2024-03-23T14:01:48;9.70;;;7.47;;
9328;SDS011;4703;48.748;19.142;2024-03-23T14:04:16;8.60;;;7.80;;
9328;SDS011;4703;48.748;19.142;2024-03-23T14:06:42;7.97;;;7.27;;
9328;SDS011;4703;48.748;19.142;2024-03-23T14:09:12;8.67;;;7.87;;
9328;SDS011;4703;48.748;19.142;2024-03-23T14:11:39;7.90;;;7.20;;
9328;SDS011;4703;48.748;19.142;2024-03-23T14:14:08;8.23;;;7.43;;
9328;SDS011;4703;48.748;19.142;2024-03-23T14:16:34;8.47;;;7.67;;
9328;SDS011;4703;48.748;19.142;2024-03-23T14:19:00;10.17;;;7.77;;
9328;SDS011;4703;48.748;19.142;2024-03-23T14:21:26;9.70;;;8.27;;
9328;SDS011;4703;48.748;19.142;2024-03-23T14:23:52;8.83;;;8.00;;
9328;SDS011;4703;48.748;19.142;2024-03-23T14:26:20;10.83;;;9.60;;
9328;SDS011;4703;48.748;19.142;2024-03-23T14:28:46;10.63;;;9.03;;
9328;SDS011;4703;48.748;19.142;2024-03-23T14:31:12;9.23;;;8.43;;
9328;SDS011;4703;48.748;19.142;2024-03-23T14:33:38;9.47;;;8.00;;
9328;SDS011;4703;48.748;19.142;2024-03-23T14:36:15;7.57;;;6.90;;
9328;SDS011;4703;48.748;19.142;2024-03-23T14:38:48;8.33;;;7.20;;
9328;SDS011;4703;48.748;19.142;2024-03-23T14:41:14;9.20;;;8.30;;
9328;SDS011;4703;48.748;19.142;2024-03-23T14:43:41;8.93;;;7.83;;
9328;SDS011;4703;48.748;19.142;2024-03-23T14:46:10;12.93;;;7.97;;
9328;SDS011;4703;48.748;19.142;2024-03-23T14:48:41;8.80;;;8.00;;
9328;SDS011;4703;48.748;19.142;2024-03-23T14:51:09;9.40;;;8.50;;
9328;SDS011;4703;48.748;19.142;2024-03-23T14:53:37;9.57;;;8.67;;
9328;SDS011;4703;48.748;19.142;2024-03-23T14:56:08;16.10;;;13.87;;
9328;SDS011;4703;48.748;19.142;2024-03-23T14:58:37;10.47;;;9.37;;
9328;SDS011;4703;48.748;19.142;2024-03-23T15:01:03;14.27;;;12.77;;
9328;SDS011;4703;48.748;19.142;2024-03-23T15:03:35;9.87;;;8.77;;
9328;SDS011;4703;48.748;19.142;2024-03-23T15:06:05;9.03;;;8.23;;
9328;SDS011;4703;48.748;19.142;2024-03-23T15:08:32;9.93;;;8.40;;
9328;SDS011;4703;48.748;19.142;2024-03-23T15:11:01;10.70;;;8.57;;
9328;SDS011;4703;48.748;19.142;2024-03-23T15:13:36;9.13;;;8.23;;
9328;SDS011;4703;48.748;19.142;2024-03-23T15:16:04;9.30;;;8.23;;
9328;SDS011;4703;48.748;19.142;2024-03-23T15:18:31;9.37;;;8.47;;
9328;SDS011;4703;48.748;19.142;2024-03-23T15:20:58;9.63;;;8.63;;
9328;SDS011;4703;48.748;19.142;2024-03-23T15:23:28;9.17;;;8.23;;
9328;SDS011;4703;48.748;19.142;2024-03-23T15:25:55;9.97;;;8.90;;
9328;SDS011;4703;48.748;19.142;2024-03-23T15:28:26;11.00;;;9.10;;
9328;SDS011;4703;48.748;19.142;2024-03-23T15:31:06;11.83;;;9.23;;
9328;SDS011;4703;48.748;19.142;2024-03-23T15:33:36;9.60;;;8.60;;
9328;SDS011;4703;48.748;19.142;2024-03-23T15:36:02;9.97;;;8.97;;
9328;SDS011;4703;48.748;19.142;2024-03-23T15:38:31;12.10;;;10.03;;
9328;SDS011;4703;48.748;19.142;2024-03-23T15:40:57;10.93;;;9.90;;
9328;SDS011;4703;48.748;19.142;2024-03-23T15:43:24;10.97;;;9.97;;
9328;SDS011;4703;48.748;19.142;2024-03-23T15:45:57;13.77;;;11.57;;
9328;SDS011;4703;48.748;19.142;2024-03-23T15:48:28;11.40;;;10.17;;
9328;SDS011;4703;48.748;19.142;2024-03-23T15:50:56;12.43;;;10.23;;